createdAt,value
2019-03-22T00:02:29.156Z,160.77
2019-03-22T00:04:59.195Z,153.93
2019-03-22T00:07:29.102Z,150.40
2019-03-22T00:09:59.194Z,158.73
2019-03-22T00:12:29.164Z,158.67
2019-03-22T00:14:58.979Z,151.23
2019-03-22T00:17:28.844Z,154.17
2019-03-22T00:19:59.054Z,151.90
2019-03-22T00:22:28.982Z,158.57
2019-03-22T00:24:59.074Z,162.10
2019-03-22T00:27:28.958Z,159.67
2019-03-22T00:29:59.022Z,153.60
2019-03-22T00:32:28.877Z,156.07
2019-03-22T00:34:58.872Z,148.63
2019-03-22T00:37:28.873Z,155.13
2019-03-22T00:39:58.815Z,159.93
2019-03-22T00:42:28.944Z,159.17
2019-03-22T00:44:58.934Z,153.10
2019-03-22T00:47:28.789Z,150.87
2019-03-22T00:49:58.823Z,146.40
2019-03-22T00:52:28.594Z,148.57
2019-03-22T00:54:58.363Z,148.77
2019-03-22T00:57:28.946Z,154.00
2019-03-22T00:59:59.037Z,146.53
2019-03-22T01:02:29.108Z,154.47
2019-03-22T01:04:59.168Z,155.93
2019-03-22T01:07:28.990Z,154.30
2019-03-22T01:09:58.953Z,152.23
2019-03-22T01:12:28.911Z,154.33
2019-03-22T01:14:59.200Z,161.40
2019-03-22T01:17:29.409Z,165.90
2019-03-22T01:19:59.303Z,169.20
2019-03-22T01:22:29.365Z,162.90
2019-03-22T01:24:59.249Z,176.73
2019-03-22T01:27:39.834Z,167.77
2019-03-22T01:30:00.978Z,169.43
2019-03-22T01:32:30.883Z,166.77
2019-03-22T01:35:00.992Z,161.53
2019-03-22T01:37:31.060Z,162.37
2019-03-22T01:40:00.976Z,158.77
2019-03-22T01:42:30.950Z,154.40
2019-03-22T01:45:00.840Z,155.10
2019-03-22T01:47:30.915Z,151.60
2019-03-22T01:50:00.775Z,150.43
2019-03-22T01:52:30.803Z,152.80
2019-03-22T01:55:00.716Z,148.53
2019-03-22T01:57:30.644Z,146.37
2019-03-22T02:00:00.582Z,149.33
2019-03-22T02:02:30.590Z,144.20
2019-03-22T02:05:00.515Z,148.53
2019-03-22T02:07:30.412Z,146.40
2019-03-22T02:10:00.415Z,145.40
2019-03-22T02:12:30.462Z,148.30
2019-03-22T02:15:00.400Z,147.37
2019-03-22T02:17:30.295Z,148.20
2019-03-22T02:20:00.341Z,145.50
2019-03-22T02:22:30.281Z,148.27
2019-03-22T02:25:00.327Z,138.57
2019-03-22T02:27:30.393Z,140.57
2019-03-22T02:30:00.581Z,138.90
2019-03-22T02:32:30.644Z,141.80
2019-03-22T02:35:00.714Z,136.10
2019-03-22T02:37:30.752Z,140.53
2019-03-22T02:40:00.713Z,139.20
2019-03-22T02:42:30.653Z,144.37
2019-03-22T02:45:00.658Z,141.60
2019-03-22T02:47:30.666Z,141.80
2019-03-22T02:50:05.962Z,141.93
2019-03-22T02:52:32.098Z,138.23
2019-03-22T02:55:02.040Z,141.50
2019-03-22T02:57:31.888Z,136.07
2019-03-22T03:00:01.855Z,145.33
2019-03-22T03:02:32.044Z,137.53
2019-03-22T03:05:01.989Z,145.93
2019-03-22T03:07:31.892Z,145.77
2019-03-22T03:10:01.965Z,143.03
2019-03-22T03:12:31.842Z,135.73
2019-03-22T03:15:01.756Z,136.93
2019-03-22T03:17:31.671Z,137.23
2019-03-22T03:20:01.547Z,132.47
2019-03-22T03:22:31.593Z,132.90
2019-03-22T03:25:01.515Z,132.63
2019-03-22T03:27:31.498Z,130.70
2019-03-22T03:30:01.614Z,134.47
2019-03-22T03:32:31.546Z,142.23
2019-03-22T03:35:01.770Z,135.40
2019-03-22T03:37:31.712Z,135.07
2019-03-22T03:40:01.651Z,142.13
2019-03-22T03:42:31.838Z,143.40
2019-03-22T03:45:01.821Z,132.27
2019-03-22T03:47:31.728Z,136.60
2019-03-22T03:50:01.641Z,125.00
2019-03-22T03:52:31.780Z,129.50
2019-03-22T03:55:01.703Z,127.93
2019-03-22T03:57:31.698Z,124.77
2019-03-22T04:00:01.668Z,122.17
2019-03-22T04:02:31.800Z,123.37
2019-03-22T04:05:01.984Z,126.03
2019-03-22T04:07:31.935Z,123.90
2019-03-22T04:10:01.901Z,122.20
2019-03-22T04:12:31.998Z,121.30
2019-03-22T04:15:02.088Z,116.63
2019-03-22T04:17:32.197Z,114.50
2019-03-22T04:20:02.220Z,118.00
2019-03-22T04:22:31.978Z,113.07
2019-03-22T04:25:01.997Z,118.67
2019-03-22T04:27:32.245Z,109.07
2019-03-22T04:30:02.258Z,109.63
2019-03-22T04:32:32.384Z,109.33
2019-03-22T04:35:02.368Z,113.57
2019-03-22T04:37:32.354Z,107.57
2019-03-22T04:40:02.346Z,112.17
2019-03-22T04:42:32.326Z,107.23
2019-03-22T04:45:02.224Z,111.17
2019-03-22T04:47:32.473Z,114.13
2019-03-22T04:50:02.811Z,110.43
2019-03-22T04:52:32.892Z,109.00
2019-03-22T04:55:03.844Z,111.60
2019-03-22T04:57:35.229Z,112.77
2019-03-22T05:00:06.580Z,114.37
2019-03-22T05:02:36.567Z,111.23
2019-03-22T05:05:07.579Z,108.67
2019-03-22T05:07:37.475Z,111.63
2019-03-22T05:10:09.206Z,112.93
2019-03-22T05:12:39.986Z,111.83
2019-03-22T05:15:13.159Z,114.80
2019-03-22T05:17:43.714Z,113.43
2019-03-22T05:20:15.433Z,110.57
2019-03-22T05:22:46.170Z,112.20
2019-03-22T05:25:17.803Z,112.17
2019-03-22T05:27:49.811Z,108.73
2019-03-22T05:31:11.351Z,110.77
2019-03-22T05:33:41.188Z,105.73
2019-03-22T05:36:11.077Z,116.77
2019-03-22T05:38:40.868Z,110.40
2019-03-22T05:41:10.781Z,116.87
2019-03-22T05:43:41.693Z,119.10
2019-03-22T05:46:11.709Z,121.93
2019-03-22T05:48:41.558Z,116.70
2019-03-22T05:51:11.459Z,114.40
2019-03-22T05:53:41.476Z,111.97
2019-03-22T05:56:11.371Z,123.30
2019-03-22T05:58:41.295Z,120.37
2019-03-22T06:01:11.220Z,120.63
2019-03-22T06:03:41.142Z,118.97
2019-03-22T06:06:11.056Z,114.40
2019-03-22T06:08:40.920Z,123.90
2019-03-22T06:11:10.954Z,121.83
2019-03-22T06:13:40.960Z,119.83
2019-03-22T06:16:10.868Z,116.77
2019-03-22T06:18:40.770Z,121.80
2019-03-22T06:21:10.626Z,119.93
2019-03-22T06:23:40.494Z,112.27
2019-03-22T06:26:10.362Z,123.53
2019-03-22T06:28:40.283Z,121.23
2019-03-22T06:31:10.306Z,117.83
2019-03-22T06:33:40.245Z,117.53
2019-03-22T06:36:10.158Z,112.40
2019-03-22T06:38:40.105Z,105.97
2019-03-22T06:41:10.074Z,106.83
2019-03-22T06:43:40.005Z,106.50
2019-03-22T06:46:10.083Z,110.27
2019-03-22T06:48:39.940Z,104.43
2019-03-22T06:51:09.859Z,97.00
2019-03-22T06:53:39.796Z,104.63
2019-03-22T06:56:09.730Z,109.20
2019-03-22T06:58:39.591Z,102.17
2019-03-22T07:01:09.565Z,94.60
2019-03-22T07:03:39.679Z,94.90
2019-03-22T07:06:09.760Z,97.60
2019-03-22T07:08:39.867Z,98.63
2019-03-22T07:11:09.806Z,100.63
2019-03-22T07:13:39.739Z,98.50
2019-03-22T07:16:09.591Z,98.90
2019-03-22T07:18:39.550Z,100.40
2019-03-22T07:21:09.709Z,98.10
2019-03-22T07:23:39.837Z,95.30
2019-03-22T07:26:09.807Z,94.40
2019-03-22T07:28:41.538Z,95.57
2019-03-22T07:31:11.488Z,92.53
2019-03-22T07:33:41.488Z,96.70
2019-03-22T07:36:11.478Z,91.80
2019-03-22T07:38:48.040Z,98.23
2019-03-22T07:41:19.289Z,103.83
2019-03-22T07:43:49.215Z,96.20
2019-03-22T07:46:19.125Z,95.80
2019-03-22T07:48:49.238Z,89.10
2019-03-22T07:51:19.063Z,87.13
2019-03-22T07:53:49.059Z,74.77
2019-03-22T07:56:18.956Z,74.73
2019-03-22T07:58:48.825Z,74.30
2019-03-22T08:01:18.686Z,78.93
2019-03-22T08:03:48.595Z,73.17
2019-03-22T08:06:18.735Z,77.07
2019-03-22T08:08:48.795Z,74.83
2019-03-22T08:11:18.893Z,78.13
2019-03-22T08:13:49.039Z,77.07
2019-03-22T08:16:18.993Z,76.77
2019-03-22T08:18:49.096Z,78.23
2019-03-22T08:21:18.998Z,76.20
2019-03-22T08:23:49.008Z,74.83
2019-03-22T08:26:18.988Z,71.60
2019-03-22T08:28:49.164Z,73.67
2019-03-22T08:31:19.181Z,76.53
2019-03-22T08:33:49.134Z,75.60
2019-03-22T08:36:19.031Z,70.27
2019-03-22T08:38:48.972Z,68.13
2019-03-22T08:41:18.961Z,63.40
2019-03-22T08:43:48.944Z,61.97
2019-03-22T08:46:18.863Z,63.27
2019-03-22T08:48:48.693Z,57.37
2019-03-22T08:51:18.562Z,52.20
2019-03-22T08:53:55.232Z,53.10
2019-03-22T08:56:20.057Z,51.67
2019-03-22T08:58:49.960Z,49.30
2019-03-22T09:01:19.870Z,51.03
2019-03-22T09:03:49.775Z,46.30
2019-03-22T09:06:19.629Z,46.10
2019-03-22T09:08:49.593Z,44.73
2019-03-22T09:11:19.681Z,42.27
2019-03-22T09:13:49.696Z,42.77
2019-03-22T09:16:19.598Z,41.40
2019-03-22T09:18:50.705Z,41.17
2019-03-22T09:21:20.630Z,38.90
2019-03-22T09:23:50.587Z,37.33
2019-03-22T09:26:20.493Z,35.43
2019-03-22T09:28:50.378Z,35.87
2019-03-22T09:31:20.280Z,37.27
2019-03-22T09:33:50.127Z,32.87
2019-03-22T09:36:20.078Z,30.43
2019-03-22T09:38:50.015Z,31.03
2019-03-22T09:41:20.052Z,36.13
2019-03-22T09:43:50.119Z,37.20
2019-03-22T09:46:20.142Z,41.67
2019-03-22T09:48:50.115Z,43.57
2019-03-22T09:51:20.108Z,37.43
2019-03-22T09:53:50.070Z,38.57
2019-03-22T09:56:20.037Z,39.30
2019-03-22T09:58:53.031Z,36.83
2019-03-22T10:01:24.176Z,34.17
2019-03-22T10:03:54.595Z,32.30
2019-03-22T10:06:24.603Z,28.70
2019-03-22T10:08:54.595Z,29.97
2019-03-22T10:11:24.491Z,31.77
2019-03-22T10:13:54.456Z,33.93
2019-03-22T10:16:24.491Z,34.10
2019-03-22T10:18:54.436Z,39.53
2019-03-22T10:21:26.687Z,34.13
2019-03-22T10:23:56.624Z,34.10
2019-03-22T10:26:26.569Z,31.17
2019-03-22T10:28:56.731Z,30.43
2019-03-22T10:31:36.544Z,30.33
2019-03-22T10:33:58.332Z,25.33
2019-03-22T10:36:28.383Z,24.87
2019-03-22T10:38:58.395Z,27.57
2019-03-22T10:41:28.356Z,27.93
2019-03-22T10:43:58.382Z,24.93
2019-03-22T10:46:28.375Z,24.30
2019-03-22T10:48:58.283Z,29.13
2019-03-22T10:51:28.166Z,24.87
2019-03-22T10:53:58.030Z,25.07
2019-03-22T10:56:27.948Z,23.93
2019-03-22T10:58:57.891Z,21.63
2019-03-22T11:01:27.733Z,20.47
2019-03-22T11:03:57.797Z,19.73
2019-03-22T11:06:27.660Z,20.00
2019-03-22T11:08:57.796Z,19.13
2019-03-22T11:11:27.842Z,21.60
2019-03-22T11:13:57.728Z,22.63
2019-03-22T11:16:27.883Z,21.17
2019-03-22T11:18:57.980Z,22.03
2019-03-22T11:21:28.151Z,21.67
2019-03-22T11:23:58.071Z,18.87
2019-03-22T11:26:28.220Z,19.83
2019-03-22T11:28:58.344Z,20.93
2019-03-22T11:31:29.975Z,19.83
2019-03-22T11:33:59.928Z,16.63
2019-03-22T11:36:29.851Z,21.73
2019-03-22T11:38:59.995Z,18.67
2019-03-22T11:41:30.231Z,19.23
2019-03-22T11:44:00.395Z,20.10
2019-03-22T11:46:31.117Z,19.50
2019-03-22T11:49:01.292Z,25.17
2019-03-22T11:51:31.475Z,24.60
2019-03-22T11:54:01.761Z,20.20
2019-03-22T11:56:31.815Z,24.57
2019-03-22T11:59:02.035Z,27.50
2019-03-22T12:01:32.301Z,28.47
2019-03-22T12:04:02.291Z,27.67
2019-03-22T12:06:32.491Z,24.03
2019-03-22T12:09:02.440Z,27.33
2019-03-22T12:11:32.573Z,26.03
2019-03-22T12:14:02.642Z,28.13
2019-03-22T12:16:32.970Z,31.00
2019-03-22T12:19:03.006Z,30.90
2019-03-22T12:21:33.225Z,30.60
2019-03-22T12:24:03.288Z,33.60
2019-03-22T12:26:33.457Z,33.03
2019-03-22T12:29:03.431Z,32.23
2019-03-22T12:31:33.526Z,32.17
2019-03-22T12:34:04.334Z,29.87
2019-03-22T12:36:34.540Z,31.17
2019-03-22T12:39:06.961Z,33.70
2019-03-22T12:41:37.058Z,32.93
2019-03-22T12:44:07.300Z,33.80
2019-03-22T12:46:37.606Z,37.20
2019-03-22T12:49:07.940Z,36.77
2019-03-22T12:51:38.035Z,35.97
2019-03-22T12:54:08.464Z,39.83
2019-03-22T12:56:38.472Z,39.63
2019-03-22T12:59:08.773Z,39.53
2019-03-22T13:01:39.058Z,36.43
2019-03-22T13:04:08.959Z,40.77
2019-03-22T13:06:38.895Z,41.63
2019-03-22T13:09:09.878Z,41.40
2019-03-22T13:11:40.081Z,38.23
2019-03-22T13:14:10.163Z,38.30
2019-03-22T13:16:40.109Z,37.33
2019-03-22T13:19:10.153Z,39.53
2019-03-22T13:21:40.035Z,38.67
2019-03-22T13:24:09.887Z,42.90
2019-03-22T13:26:39.978Z,41.87
2019-03-22T13:29:10.024Z,40.67
2019-03-22T13:31:40.117Z,40.90
2019-03-22T13:34:10.059Z,46.27
2019-03-22T13:36:40.069Z,42.10
2019-03-22T13:39:10.360Z,44.10
2019-03-22T13:41:40.247Z,43.57
2019-03-22T13:44:10.254Z,44.37
2019-03-22T13:46:40.815Z,47.03
2019-03-22T13:49:11.059Z,47.40
2019-03-22T13:51:42.702Z,46.23
2019-03-22T13:54:12.793Z,45.40
2019-03-22T13:56:42.839Z,41.57
2019-03-22T13:59:12.995Z,41.93
2019-03-22T14:01:42.959Z,38.23
2019-03-22T14:04:12.910Z,35.27
2019-03-22T14:06:42.986Z,37.20
2019-03-22T14:09:13.039Z,34.70
2019-03-22T14:11:45.833Z,34.73
2019-03-22T14:14:15.943Z,32.70
2019-03-22T14:16:46.758Z,30.70
2019-03-22T14:19:17.320Z,33.80
2019-03-22T14:21:47.290Z,30.10
2019-03-22T14:24:17.192Z,34.57
2019-03-22T14:26:47.158Z,31.77
2019-03-22T14:29:17.102Z,35.57
2019-03-22T14:31:47.190Z,32.73
2019-03-22T14:34:17.240Z,35.10
2019-03-22T14:36:47.319Z,37.50
2019-03-22T14:39:17.196Z,35.33
2019-03-22T14:41:47.189Z,40.63
2019-03-22T14:44:25.006Z,36.33
2019-03-22T14:46:48.658Z,35.63
2019-03-22T14:49:19.027Z,37.87
2019-03-22T14:51:49.123Z,39.80
2019-03-22T14:54:18.975Z,39.33
2019-03-22T14:56:48.872Z,40.13
2019-03-22T14:59:18.910Z,40.33
2019-03-22T15:01:48.839Z,37.97
2019-03-22T15:04:18.830Z,41.93
2019-03-22T15:06:48.817Z,39.33
2019-03-22T15:09:18.814Z,48.50
2019-03-22T15:11:48.838Z,56.43
2019-03-22T15:14:37.810Z,57.30
2019-03-22T15:17:28.971Z,57.60
2019-03-22T15:20:26.974Z,53.87
2019-03-22T15:23:25.224Z,59.10
2019-03-22T15:26:18.426Z,59.17
2019-03-22T15:29:11.980Z,57.03
2019-03-22T15:31:53.048Z,58.20
2019-03-22T15:34:32.567Z,58.47
2019-03-22T15:37:21.308Z,53.97
2019-03-22T15:40:08.597Z,56.17
2019-03-22T15:42:38.579Z,54.63
2019-03-22T15:45:10.613Z,57.87
2019-03-22T15:47:40.641Z,57.90
2019-03-22T15:50:12.633Z,52.00
2019-03-22T15:52:43.362Z,52.10
2019-03-22T15:55:13.456Z,57.97
2019-03-22T15:57:43.390Z,56.63
2019-03-22T16:00:16.466Z,56.00
2019-03-22T16:02:46.686Z,52.70
2019-03-22T16:05:17.760Z,51.83
2019-03-22T16:07:52.463Z,51.53
2019-03-22T16:10:24.947Z,50.87
2019-03-22T16:12:54.931Z,49.50
2019-03-22T16:15:24.909Z,52.13
2019-03-22T16:17:54.875Z,51.43
2019-03-22T16:20:24.966Z,54.27
2019-03-22T16:22:55.638Z,54.33
2019-03-22T16:25:25.531Z,53.17
2019-03-22T16:27:55.446Z,62.83
2019-03-22T16:30:25.395Z,53.87
2019-03-22T16:32:55.248Z,59.20
2019-03-22T16:35:25.215Z,55.83
2019-03-22T16:37:54.976Z,56.67
2019-03-22T16:40:24.866Z,59.13
2019-03-22T16:42:54.764Z,55.33
2019-03-22T16:45:38.970Z,54.43
2019-03-22T16:48:09.180Z,52.63
2019-03-22T16:50:39.268Z,52.27
2019-03-22T16:53:09.245Z,50.80
2019-03-22T16:55:39.164Z,53.97
2019-03-22T16:58:09.154Z,57.50
2019-03-22T17:00:39.358Z,61.93
2019-03-22T17:03:12.535Z,63.70
2019-03-22T17:05:42.467Z,75.27
2019-03-22T17:08:12.411Z,270.23
2019-03-22T17:10:42.347Z,176.77
2019-03-22T17:13:12.472Z,135.40
2019-03-22T17:15:42.412Z,120.43
2019-03-22T17:18:12.372Z,79.37
2019-03-22T17:20:42.284Z,78.80
2019-03-22T17:23:12.206Z,78.13
2019-03-22T17:25:42.152Z,83.70
2019-03-22T17:28:12.276Z,76.80
2019-03-22T17:30:42.406Z,72.97
2019-03-22T17:33:12.442Z,74.50
2019-03-22T17:35:45.037Z,82.23
2019-03-22T17:38:15.041Z,79.17
2019-03-22T17:40:45.009Z,69.00
2019-03-22T17:43:14.924Z,72.17
2019-03-22T17:45:44.864Z,70.80
2019-03-22T17:48:15.245Z,70.37
2019-03-22T17:50:45.176Z,74.10
2019-03-22T17:53:15.603Z,78.27
2019-03-22T17:55:45.468Z,85.30
2019-03-22T17:58:15.482Z,88.13
2019-03-22T18:00:46.087Z,85.70
2019-03-22T18:03:15.931Z,81.47
2019-03-22T18:05:45.849Z,79.30
2019-03-22T18:08:15.774Z,76.97
2019-03-22T18:10:45.635Z,78.70
2019-03-22T18:13:15.669Z,78.23
2019-03-22T18:15:45.626Z,77.33
2019-03-22T18:18:15.542Z,78.73
2019-03-22T18:20:45.489Z,74.27
2019-03-22T18:23:15.423Z,64.27
2019-03-22T18:25:45.535Z,60.27
2019-03-22T18:28:15.527Z,55.50
2019-03-22T18:30:46.723Z,56.10
2019-03-22T18:33:16.622Z,56.13
2019-03-22T18:35:46.550Z,58.30
2019-03-22T18:38:16.496Z,61.70
2019-03-22T18:40:46.533Z,58.23
2019-03-22T18:43:16.618Z,59.37
2019-03-22T18:45:46.678Z,61.13
2019-03-22T18:48:16.913Z,59.00
2019-03-22T18:50:56.380Z,60.27
2019-03-22T18:53:18.757Z,57.27
2019-03-22T18:55:49.085Z,58.70
2019-03-22T18:58:19.394Z,57.40
2019-03-22T19:00:49.946Z,59.87
2019-03-22T19:03:20.488Z,74.30
2019-03-22T19:05:50.983Z,88.80
2019-03-22T19:08:21.248Z,97.87
2019-03-22T19:10:51.734Z,107.60
2019-03-22T19:13:30.365Z,104.37
2019-03-22T19:15:54.131Z,101.57
2019-03-22T19:18:24.700Z,104.27
2019-03-22T19:20:54.754Z,93.00
2019-03-22T19:23:24.724Z,100.30
2019-03-22T19:25:54.719Z,107.53
2019-03-22T19:28:24.685Z,99.30
2019-03-22T19:30:54.892Z,104.70
2019-03-22T19:33:27.233Z,106.57
2019-03-22T19:36:08.408Z,110.43
2019-03-22T19:38:38.367Z,107.53
2019-03-22T19:41:08.237Z,109.10
2019-03-22T19:43:38.210Z,108.20
2019-03-22T19:46:08.441Z,113.63
2019-03-22T19:48:38.382Z,112.17
2019-03-22T19:51:08.342Z,107.70
2019-03-22T19:53:38.276Z,103.20
2019-03-22T19:56:08.229Z,108.90
2019-03-22T19:58:38.386Z,108.77
2019-03-22T20:01:08.346Z,101.93
2019-03-22T20:03:38.380Z,119.83
2019-03-22T20:06:08.349Z,131.00
2019-03-22T20:08:38.324Z,134.80
2019-03-22T20:11:08.426Z,136.97
2019-03-22T20:13:38.431Z,177.80
2019-03-22T20:16:08.371Z,197.73
2019-03-22T20:18:38.263Z,180.40
2019-03-22T20:21:08.138Z,162.80
2019-03-22T20:23:37.986Z,141.33
2019-03-22T20:26:08.339Z,136.60
2019-03-22T20:28:38.606Z,132.33
2019-03-22T20:31:08.724Z,125.77
2019-03-22T20:33:38.698Z,130.03
2019-03-22T20:36:08.709Z,129.60
2019-03-22T20:38:41.855Z,115.30
2019-03-22T20:41:12.482Z,100.67
2019-03-22T20:43:45.025Z,98.50
2019-03-22T20:46:14.967Z,94.40
2019-03-22T20:48:44.893Z,82.33
2019-03-22T20:51:14.847Z,78.23
2019-03-22T20:53:45.038Z,79.37
2019-03-22T20:56:15.059Z,70.03
2019-03-22T20:58:45.202Z,73.63
2019-03-22T21:01:15.213Z,72.00
2019-03-22T21:03:45.240Z,74.83
2019-03-22T21:06:15.324Z,79.37
2019-03-22T21:08:45.356Z,86.53
2019-03-22T21:11:15.389Z,81.00
2019-03-22T21:13:45.387Z,77.63
2019-03-22T21:16:15.448Z,77.90
2019-03-22T21:18:45.370Z,73.33
2019-03-22T21:21:15.548Z,75.00
2019-03-22T21:23:45.621Z,71.90
2019-03-22T21:26:15.595Z,70.93
2019-03-22T21:28:45.533Z,75.13
2019-03-22T21:31:15.805Z,66.13
2019-03-22T21:33:46.074Z,70.53
2019-03-22T21:36:16.234Z,66.20
2019-03-22T21:38:49.097Z,67.33
2019-03-22T21:41:19.194Z,66.90
2019-03-22T21:43:49.467Z,62.23
2019-03-22T21:46:19.470Z,65.00
2019-03-22T21:48:49.443Z,64.97
2019-03-22T21:51:19.403Z,81.47
2019-03-22T21:53:49.551Z,79.93
2019-03-22T21:56:19.442Z,77.60
2019-03-22T21:58:49.455Z,91.57
2019-03-22T22:01:19.579Z,87.50
2019-03-22T22:03:49.515Z,88.80
2019-03-22T22:06:19.549Z,97.90
2019-03-22T22:08:49.537Z,86.10
2019-03-22T22:11:19.633Z,82.27
2019-03-22T22:13:49.565Z,78.57
2019-03-22T22:16:19.656Z,83.67
2019-03-22T22:18:49.665Z,78.27
2019-03-22T22:21:20.209Z,73.80
2019-03-22T22:23:50.145Z,74.10
2019-03-22T22:26:20.520Z,70.30
2019-03-22T22:28:50.403Z,67.90
2019-03-22T22:31:20.300Z,66.03
2019-03-22T22:33:50.195Z,68.70
2019-03-22T22:36:20.045Z,71.27
2019-03-22T22:38:50.275Z,74.00
2019-03-22T22:41:20.344Z,72.57
2019-03-22T22:43:50.548Z,72.27
2019-03-22T22:46:20.582Z,76.60
2019-03-22T22:48:50.842Z,78.40
2019-03-22T22:51:20.870Z,83.30
2019-03-22T22:53:50.795Z,82.63
2019-03-22T22:56:20.822Z,84.17
2019-03-22T22:58:50.904Z,102.00
2019-03-22T23:01:21.003Z,92.03
2019-03-22T23:03:50.917Z,97.47
2019-03-22T23:06:20.926Z,85.67
2019-03-22T23:08:51.150Z,80.30
2019-03-22T23:11:21.572Z,75.37
2019-03-22T23:13:51.450Z,71.17
2019-03-22T23:16:21.400Z,71.63
2019-03-22T23:18:51.554Z,67.67
2019-03-22T23:21:21.639Z,62.80
2019-03-22T23:23:51.469Z,64.93
2019-03-22T23:26:21.554Z,68.00
2019-03-22T23:28:51.467Z,72.60
2019-03-22T23:31:21.442Z,67.43
2019-03-22T23:33:51.348Z,65.57
2019-03-22T23:36:22.975Z,69.70
2019-03-22T23:38:52.851Z,75.60
2019-03-22T23:41:22.699Z,75.30
2019-03-22T23:43:52.665Z,77.53
2019-03-22T23:46:22.807Z,81.60
2019-03-22T23:48:52.938Z,95.00
2019-03-22T23:51:22.883Z,85.83
2019-03-22T23:53:52.846Z,88.73
2019-03-22T23:56:22.863Z,84.70
2019-03-22T23:58:52.877Z,80.40
